Time;durP1;ratioP1;P1;durP2;ratioP2;P2;SDS_P1;SDS_P2;PMS_P1;PMS_P2;Temp;Humidity;BMP_temperature;BMP_pressure;BME280_temperature;BME280_humidity;BME280_pressure;Samples;Min_cycle;Max_cycle;Signal;HPM_P1;HPM_P2
2021/05/21 00:01:04;;;;;;;1.20;1.03;;;10.80;98.00;;;;;;5050639;28;21140;-73
2021/05/21 00:03:31;;;;;;;1.20;1.03;;;10.90;98.00;;;;;;5054334;28;20455;-73
2021/05/21 00:05:58;;;;;;;1.30;1.10;;;10.80;98.00;;;;;;5051765;28;20474;-72
2021/05/21 00:08:24;;;;;;;1.37;1.00;;;10.90;98.00;;;;;;5054338;28;20460;-71
2021/05/21 00:10:51;;;;;;;1.20;1.10;;;10.90;98.00;;;;;;5050443;28;20510;-73
2021/05/21 00:13:18;;;;;;;1.20;1.10;;;10.90;98.00;;;;;;5054294;28;20462;-73
2021/05/21 00:15:48;;;;;;;1.20;1.00;;;11.00;98.00;;;;;;5050469;28;20790;-72
2021/05/21 00:18:15;;;;;;;1.20;1.00;;;11.10;98.00;;;;;;5054228;28;20866;-72
2021/05/21 00:20:51;;;;;;;1.20;1.00;;;11.20;98.00;;;;;;5051604;28;20488;-72
2021/05/21 00:23:19;;;;;;;1.20;1.00;;;11.20;98.00;;;;;;5054344;28;20507;-73
2021/05/21 00:25:45;;;;;;;1.20;1.00;;;11.10;98.00;;;;;;5051508;28;20942;-72
2021/05/21 00:28:12;;;;;;;1.20;1.10;;;10.90;98.00;;;;;;5054345;28;20514;-72
2021/05/21 00:30:48;;;;;;;1.20;1.00;;;10.70;98.00;;;;;;5051773;28;20821;-72
2021/05/21 00:33:15;;;;;;;1.20;0.90;;;10.70;98.00;;;;;;5053973;28;20503;-72
2021/05/21 00:35:42;;;;;;;1.40;1.00;;;10.80;98.00;;;;;;5050100;28;20464;-72
2021/05/21 00:38:08;;;;;;;1.20;1.00;;;10.60;98.00;;;;;;5054029;28;20455;-72
2021/05/21 00:40:35;;;;;;;1.20;1.00;;;10.50;98.00;;;;;;5051762;28;20939;-72
2021/05/21 00:43:02;;;;;;;2.27;1.13;;;10.50;98.00;;;;;;5051976;28;20505;-72
2021/05/21 00:45:28;;;;;;;1.30;1.10;;;10.50;98.00;;;;;;5052440;28;20504;-72
2021/05/21 00:47:56;;;;;;;1.60;1.20;;;10.40;98.00;;;;;;5050582;28;20520;-72
2021/05/21 00:50:22;;;;;;;1.20;1.00;;;10.30;98.00;;;;;;5053503;28;20521;-72
2021/05/21 00:52:49;;;;;;;1.20;0.90;;;10.30;98.00;;;;;;5050647;28;20955;-72
2021/05/21 00:55:16;;;;;;;1.20;0.90;;;10.40;98.00;;;;;;5053427;28;20591;-72
2021/05/21 00:57:43;;;;;;;1.30;1.10;;;10.70;98.00;;;;;;5050795;28;20557;-72
2021/05/21 01:00:11;;;;;;;1.20;1.00;;;10.90;98.00;;;;;;5053349;28;20934;-73
2021/05/21 01:02:38;;;;;;;1.20;1.00;;;11.00;98.00;;;;;;5050327;28;21009;-72
2021/05/21 01:05:07;;;;;;;1.20;1.10;;;10.90;98.00;;;;;;5052011;28;20462;-72
2021/05/21 01:07:34;;;;;;;1.20;1.00;;;10.80;98.00;;;;;;5050910;28;20998;-72
2021/05/21 01:10:01;;;;;;;1.20;1.00;;;10.70;98.00;;;;;;5052901;28;20454;-73
2021/05/21 01:12:27;;;;;;;1.20;1.10;;;10.50;98.00;;;;;;5048857;28;20953;-72
2021/05/21 01:14:55;;;;;;;1.20;1.00;;;10.30;98.00;;;;;;5051694;28;20463;-72
2021/05/21 01:17:23;;;;;;;1.20;1.00;;;10.20;98.00;;;;;;5050467;28;20457;-72
2021/05/21 01:19:50;;;;;;;1.20;1.00;;;10.30;98.00;;;;;;5052814;28;20974;-72
2021/05/21 01:22:18;;;;;;;1.30;1.03;;;10.40;98.00;;;;;;5049053;28;20550;-71
2021/05/21 01:24:45;;;;;;;1.30;1.00;;;10.50;98.00;;;;;;5052952;28;20454;-72
2021/05/21 01:27:12;;;;;;;1.20;0.90;;;10.70;98.00;;;;;;5050147;28;20446;-72
2021/05/21 01:29:39;;;;;;;1.20;1.00;;;10.50;98.00;;;;;;5053103;28;20825;-73
2021/05/21 01:32:08;;;;;;;1.20;1.00;;;10.40;98.00;;;;;;5050097;28;20455;-72
2021/05/21 01:34:37;;;;;;;1.40;1.10;;;10.50;98.00;;;;;;5052977;28;20469;-72
2021/05/21 01:37:04;;;;;;;1.50;1.10;;;10.50;98.00;;;;;;5049574;28;20878;-72
2021/05/21 01:39:35;;;;;;;1.20;1.10;;;10.40;98.00;;;;;;5052787;28;20495;-72
2021/05/21 01:42:02;;;;;;;1.20;1.00;;;10.30;98.00;;;;;;5048520;28;20485;-72
2021/05/21 01:44:28;;;;;;;1.20;1.00;;;10.30;98.00;;;;;;5052652;28;20976;-73
2021/05/21 01:46:55;;;;;;;1.20;0.90;;;10.30;98.00;;;;;;5049455;28;20519;-72
2021/05/21 01:49:21;;;;;;;1.60;1.30;;;10.20;98.00;;;;;;5052361;28;20465;-71
2021/05/21 01:51:54;;;;;;;1.20;1.00;;;10.20;98.00;;;;;;5048537;28;20471;-73
2021/05/21 01:54:21;;;;;;;1.40;1.20;;;10.20;98.00;;;;;;5052448;28;20549;-73
2021/05/21 01:56:51;;;;;;;1.20;1.00;;;10.00;98.00;;;;;;5049356;28;20813;-72
2021/05/21 01:59:18;;;;;;;1.23;1.03;;;9.90;98.00;;;;;;5052225;28;20458;-73
2021/05/21 02:01:45;;;;;;;1.20;1.10;;;9.80;98.00;;;;;;5048015;28;20483;-73
2021/05/21 02:04:11;;;;;;;1.20;1.00;;;9.80;98.00;;;;;;5052173;28;20462;-72
2021/05/21 02:06:38;;;;;;;1.20;1.00;;;9.80;98.00;;;;;;5049562;28;20595;-72
2021/05/21 02:09:08;;;;;;;1.20;1.00;;;9.90;98.00;;;;;;5051790;28;20456;-72
2021/05/21 02:11:35;;;;;;;1.20;1.00;;;10.10;98.00;;;;;;5048819;28;20462;-72
2021/05/21 02:14:04;;;;;;;1.20;0.90;;;10.20;98.00;;;;;;5051056;28;20454;-71
2021/05/21 02:16:31;;;;;;;1.20;0.90;;;10.10;98.00;;;;;;5049486;28;20491;-71
2021/05/21 02:18:58;;;;;;;1.20;1.00;;;10.20;98.00;;;;;;5052177;28;20466;-73
2021/05/21 02:21:31;;;;;;;1.20;1.13;;;10.10;98.00;;;;;;5049113;28;20481;-72
2021/05/21 02:24:00;;;;;;;1.57;1.10;;;10.00;98.00;;;;;;5051847;28;20547;-73
2021/05/21 02:26:26;;;;;;;1.20;0.90;;;10.10;98.00;;;;;;5049140;28;20926;-72
2021/05/21 02:28:53;;;;;;;1.20;1.10;;;10.10;98.00;;;;;;5051809;28;20454;-73
2021/05/21 02:31:21;;;;;;;1.30;1.10;;;10.10;98.00;;;;;;5047248;28;20816;-71
2021/05/21 02:33:47;;;;;;;1.20;0.97;;;10.30;98.00;;;;;;5051758;28;20460;-72
2021/05/21 02:36:14;;;;;;;1.20;0.90;;;10.10;98.00;;;;;;5048803;28;20450;-72
2021/05/21 02:38:40;;;;;;;1.30;1.10;;;9.90;98.00;;;;;;5051707;28;20478;-72
2021/05/21 02:41:07;;;;;;;1.20;1.00;;;10.00;98.00;;;;;;5048384;28;20508;-72
2021/05/21 02:43:34;;;;;;;1.20;1.00;;;10.10;98.00;;;;;;5051456;28;20519;-71
2021/05/21 02:46:00;;;;;;;1.20;1.00;;;10.20;98.00;;;;;;5047401;28;20463;-72
2021/05/21 02:48:27;;;;;;;1.20;1.00;;;10.10;98.00;;;;;;5051119;28;20953;-72
2021/05/21 02:50:54;;;;;;;1.20;1.00;;;10.20;98.00;;;;;;5048324;28;20487;-72
2021/05/21 02:53:20;;;;;;;1.20;0.90;;;10.30;98.00;;;;;;5051769;28;20468;-72
2021/05/21 02:55:47;;;;;;;1.20;0.90;;;10.10;98.00;;;;;;5051379;28;20454;-71
2021/05/21 02:58:14;;;;;;;1.20;1.00;;;10.00;98.00;;;;;;5049403;28;20463;-71
2021/05/21 03:00:40;;;;;;;1.20;1.00;;;9.80;98.00;;;;;;5051564;28;20519;-73
2021/05/21 03:03:07;;;;;;;1.20;0.90;;;9.70;98.00;;;;;;5048409;28;20461;-72
2021/05/21 03:05:34;;;;;;;1.20;0.90;;;9.60;98.00;;;;;;5051470;28;20457;-71
2021/05/21 03:08:01;;;;;;;1.50;1.27;;;9.70;98.00;;;;;;5048757;28;20952;-73
2021/05/21 03:10:28;;;;;;;1.87;1.30;;;9.70;98.00;;;;;;5051251;28;20470;-73
2021/05/21 03:12:55;;;;;;;1.20;0.90;;;9.70;98.00;;;;;;5048542;28;20845;-71
2021/05/21 03:15:23;;;;;;;1.20;1.00;;;9.80;98.00;;;;;;5051246;28;20457;-73
2021/05/21 03:17:49;;;;;;;1.20;1.00;;;9.90;98.00;;;;;;5048606;28;20467;-71
2021/05/21 03:20:16;;;;;;;1.30;1.10;;;9.80;98.00;;;;;;5051299;28;20447;-73
2021/05/21 03:22:44;;;;;;;1.20;1.00;;;9.90;98.00;;;;;;5051990;28;20526;-72
2021/05/21 03:25:11;;;;;;;1.20;1.00;;;9.90;98.00;;;;;;5055183;28;20466;-73
2021/05/21 03:27:38;;;;;;;1.40;1.20;;;9.80;98.00;;;;;;5051802;28;20828;-72
2021/05/21 03:30:08;;;;;;;1.20;1.00;;;9.80;98.00;;;;;;5055126;28;20454;-71
2021/05/21 03:32:35;;;;;;;1.20;1.00;;;9.80;98.00;;;;;;5052095;28;20495;-72
2021/05/21 03:35:01;;;;;;;1.47;1.07;;;9.80;98.00;;;;;;5055097;28;20459;-73
2021/05/21 03:37:28;;;;;;;1.20;1.00;;;9.80;98.00;;;;;;5052178;28;20458;-70
2021/05/21 03:39:55;;;;;;;1.20;1.00;;;9.80;98.00;;;;;;5054804;28;20463;-71
2021/05/21 03:42:22;;;;;;;1.20;0.90;;;9.80;98.00;;;;;;5052265;28;20972;-71
2021/05/21 03:44:48;;;;;;;1.40;1.27;;;9.70;98.00;;;;;;5055151;28;20457;-72
2021/05/21 03:47:15;;;;;;;1.20;1.00;;;9.70;98.00;;;;;;5050933;28;20523;-71
2021/05/21 03:49:41;;;;;;;1.20;1.00;;;9.70;98.00;;;;;;5054751;28;20465;-72
2021/05/21 03:52:08;;;;;;;1.20;0.90;;;9.80;98.00;;;;;;5052119;28;21048;-73
2021/05/21 03:54:35;;;;;;;1.20;0.90;;;9.80;98.00;;;;;;5054861;28;20829;-72
2021/05/21 03:57:04;;;;;;;1.20;1.00;;;9.90;98.00;;;;;;5051882;28;20465;-72
2021/05/21 03:59:32;;;;;;;1.63;1.30;;;9.90;98.00;;;;;;5054651;28;20458;-70
2021/05/21 04:01:58;;;;;;;1.20;1.00;;;9.90;98.00;;;;;;5051702;28;20572;-72
2021/05/21 04:04:25;;;;;;;1.30;1.30;;;9.80;98.00;;;;;;5054549;28;20484;-72
2021/05/21 04:06:51;;;;;;;1.20;0.90;;;9.70;98.00;;;;;;5051619;28;20476;-72
2021/05/21 04:09:18;;;;;;;1.20;0.90;;;9.60;98.00;;;;;;5054398;28;20469;-71
2021/05/21 04:11:44;;;;;;;1.20;0.90;;;9.60;98.00;;;;;;5051333;28;20511;-71
2021/05/21 04:14:12;;;;;;;1.20;0.90;;;9.50;98.00;;;;;;5054159;28;20529;-72
2021/05/21 04:16:38;;;;;;;1.20;1.00;;;9.40;98.00;;;;;;5051801;28;20594;-71
2021/05/21 04:19:05;;;;;;;1.20;0.90;;;9.40;98.00;;;;;;5054326;28;20822;-72
2021/05/21 04:21:31;;;;;;;1.20;0.90;;;9.60;98.00;;;;;;5051513;28;20485;-71
2021/05/21 04:23:59;;;;;;;1.20;0.90;;;9.70;98.00;;;;;;5054198;28;21019;-72
2021/05/21 04:26:26;;;;;;;1.20;1.10;;;9.80;98.00;;;;;;5051479;28;20461;-71
2021/05/21 04:28:52;;;;;;;1.50;1.40;;;9.80;98.00;;;;;;5054113;28;20457;-71
2021/05/21 04:31:20;;;;;;;1.20;1.00;;;9.80;98.00;;;;;;5051074;28;20468;-73
2021/05/21 04:33:47;;;;;;;1.77;1.00;;;9.70;98.00;;;;;;5053387;28;20947;-71
2021/05/21 04:36:14;;;;;;;1.20;1.00;;;9.70;98.00;;;;;;5051161;28;20469;-71
2021/05/21 04:38:40;;;;;;;1.20;1.00;;;9.90;98.00;;;;;;5053988;28;20454;-71
2021/05/21 04:41:07;;;;;;;1.20;1.10;;;10.10;98.00;;;;;;5050868;28;20457;-72
2021/05/21 04:43:34;;;;;;;1.20;1.00;;;10.30;98.00;;;;;;5052470;28;20457;-72
2021/05/21 04:46:01;;;;;;;1.20;1.00;;;10.30;98.00;;;;;;5051939;28;20449;-72
2021/05/21 04:48:29;;;;;;;1.20;1.00;;;10.20;98.00;;;;;;5052585;28;20778;-71
2021/05/21 04:50:57;;;;;;;1.20;1.10;;;10.30;98.00;;;;;;5052422;28;20469;-71
2021/05/21 04:53:24;;;;;;;1.20;1.00;;;10.30;98.00;;;;;;5050708;28;20449;-72
2021/05/21 04:55:51;;;;;;;1.20;1.00;;;10.30;98.00;;;;;;5053530;28;20467;-71
2021/05/21 04:58:18;;;;;;;1.30;1.10;;;10.40;98.00;;;;;;5050617;28;20463;-72
2021/05/21 05:00:44;;;;;;;1.53;1.20;;;10.50;98.00;;;;;;5053570;28;20450;-71
2021/05/21 05:03:15;;;;;;;1.20;1.00;;;10.60;98.00;;;;;;5050507;28;20996;-72
2021/05/21 05:05:43;;;;;;;1.20;0.97;;;10.70;98.00;;;;;;5053591;28;20991;-71
2021/05/21 05:08:11;;;;;;;1.37;1.10;;;10.70;98.00;;;;;;5050969;28;20455;-71
2021/05/21 05:10:38;;;;;;;1.20;1.10;;;10.60;98.00;;;;;;5052029;28;20454;-73
2021/05/21 05:13:04;;;;;;;1.20;1.00;;;10.70;98.00;;;;;;5050663;28;20598;-71
2021/05/21 05:15:32;;;;;;;1.43;1.17;;;10.80;98.00;;;;;;5053393;28;20469;-72
2021/05/21 05:18:01;;;;;;;1.20;1.00;;;10.80;98.00;;;;;;5050658;28;20453;-71
2021/05/21 05:20:28;;;;;;;1.23;1.10;;;10.90;98.00;;;;;;5053110;28;20485;-71
2021/05/21 05:22:56;;;;;;;1.20;1.00;;;10.90;98.00;;;;;;5050287;28;20522;-70
2021/05/21 05:25:23;;;;;;;2.13;1.20;;;11.00;98.00;;;;;;5051833;28;20465;-71
2021/05/21 05:27:51;;;;;;;1.20;1.00;;;11.10;98.00;;;;;;5049873;28;20454;-72
2021/05/21 05:30:18;;;;;;;1.40;1.13;;;11.20;98.00;;;;;;5052784;28;20459;-72
2021/05/21 05:32:46;;;;;;;1.20;0.93;;;11.30;98.00;;;;;;5049789;28;20463;-72
2021/05/21 05:35:13;;;;;;;1.20;1.17;;;11.20;98.00;;;;;;5051526;28;20511;-71
2021/05/21 05:37:40;;;;;;;1.20;1.00;;;11.20;98.00;;;;;;5050216;28;20491;-70
2021/05/21 05:40:08;;;;;;;1.20;1.00;;;11.20;98.00;;;;;;5051352;28;20464;-72
2021/05/21 05:42:35;;;;;;;1.27;1.10;;;11.30;98.00;;;;;;5049524;28;20855;-71
2021/05/21 05:45:02;;;;;;;1.20;1.00;;;11.30;98.00;;;;;;5052636;28;20455;-71
2021/05/21 05:47:29;;;;;;;2.33;1.10;;;11.40;98.00;;;;;;5048630;28;20456;-71
2021/05/21 05:49:56;;;;;;;1.20;1.00;;;11.30;98.00;;;;;;5052379;28;20462;-72
2021/05/21 05:52:22;;;;;;;1.20;1.00;;;11.30;98.00;;;;;;5049618;28;20786;-72
2021/05/21 05:54:48;;;;;;;1.20;1.00;;;11.20;98.00;;;;;;5052256;28;20492;-73
2021/05/21 05:57:19;;;;;;;1.20;1.00;;;11.30;98.00;;;;;;5049796;28;20837;-72
2021/05/21 05:59:45;;;;;;;1.30;1.10;;;11.40;98.00;;;;;;5051345;28;20460;-71
2021/05/21 06:02:14;;;;;;;1.20;1.00;;;11.50;98.00;;;;;;5049385;28;20911;-71
2021/05/21 06:04:41;;;;;;;1.20;1.00;;;11.50;98.00;;;;;;5052324;28;20457;-71
2021/05/21 06:07:08;;;;;;;1.60;1.20;;;11.60;98.00;;;;;;5049653;28;20447;-71
2021/05/21 06:09:34;;;;;;;1.20;1.00;;;11.70;98.00;;;;;;5052108;28;20459;-72
2021/05/21 06:12:01;;;;;;;1.37;1.00;;;11.80;98.00;;;;;;5048753;28;20456;-72
2021/05/21 06:14:29;;;;;;;1.33;1.10;;;11.90;98.00;;;;;;5050081;28;21094;-72
2021/05/21 06:16:55;;;;;;;1.20;1.03;;;11.80;98.00;;;;;;5048371;28;20454;-72
2021/05/21 06:19:22;;;;;;;1.20;1.00;;;11.90;98.00;;;;;;5050030;28;20451;-71
2021/05/21 06:21:49;;;;;;;1.30;1.20;;;11.90;98.00;;;;;;5048584;28;20483;-71
2021/05/21 06:24:16;;;;;;;1.20;1.00;;;11.90;98.00;;;;;;5051571;28;20467;-71
2021/05/21 06:26:44;;;;;;;1.20;0.90;;;11.90;98.00;;;;;;5048699;28;20464;-72
2021/05/21 06:29:10;;;;;;;1.50;1.17;;;11.90;98.00;;;;;;5050377;28;20977;-72
2021/05/21 06:31:38;;;;;;;1.50;1.30;;;12.10;98.00;;;;;;5048981;28;21014;-72
2021/05/21 06:34:04;;;;;;;1.20;0.93;;;12.10;98.00;;;;;;5051564;28;20472;-71
2021/05/21 06:36:30;;;;;;;1.20;0.97;;;12.10;98.00;;;;;;5049085;28;20499;-71
2021/05/21 06:38:57;;;;;;;1.20;1.00;;;12.20;98.00;;;;;;5052079;28;20851;-72
2021/05/21 06:41:23;;;;;;;1.30;1.00;;;12.30;98.00;;;;;;5049145;28;20847;-72
2021/05/21 06:43:50;;;;;;;1.30;1.10;;;12.40;98.00;;;;;;5051652;28;20467;-71
2021/05/21 06:46:21;;;;;;;1.47;1.10;;;12.50;98.00;;;;;;5048918;28;20465;-72
2021/05/21 06:48:48;;;;;;;1.20;1.00;;;12.70;98.00;;;;;;5051243;28;20493;-72
2021/05/21 06:51:18;;;;;;;1.20;1.20;;;12.80;98.00;;;;;;5050197;28;20950;-72
2021/05/21 06:53:45;;;;;;;1.20;0.90;;;13.00;98.00;;;;;;5051447;28;21022;-73
2021/05/21 06:56:13;;;;;;;1.20;1.00;;;13.10;98.00;;;;;;5051050;28;20454;-73
2021/05/21 06:58:39;;;;;;;1.47;1.20;;;13.20;98.00;;;;;;5050444;28;20842;-72
2021/05/21 07:01:06;;;;;;;2.07;1.10;;;13.20;98.00;;;;;;5051200;28;20454;-73
2021/05/21 07:03:32;;;;;;;1.20;1.10;;;13.20;98.00;;;;;;5048064;28;20465;-72
2021/05/21 07:06:00;;;;;;;1.20;1.00;;;13.20;98.00;;;;;;5051307;28;20458;-72
2021/05/21 07:08:26;;;;;;;1.60;1.20;;;13.30;98.00;;;;;;5048236;28;20458;-71
2021/05/21 07:10:53;;;;;;;1.30;1.00;;;13.40;98.00;;;;;;5051039;28;20454;-73
2021/05/21 07:13:21;;;;;;;1.30;1.10;;;13.60;98.00;;;;;;5048270;28;20452;-73
2021/05/21 07:15:48;;;;;;;1.20;1.00;;;13.70;98.00;;;;;;5051291;28;20977;-71
2021/05/21 07:18:15;;;;;;;2.50;1.37;;;13.80;98.00;;;;;;5048396;28;20963;-72
2021/05/21 07:20:44;;;;;;;1.20;1.00;;;14.00;98.00;;;;;;5051197;28;20458;-72
2021/05/21 07:23:11;;;;;;;1.20;0.97;;;14.10;98.00;;;;;;5046909;28;20491;-72
2021/05/21 07:25:38;;;;;;;1.20;1.00;;;14.20;98.00;;;;;;5051454;28;20456;-71
2021/05/21 07:28:05;;;;;;;1.20;0.90;;;14.30;97.80;;;;;;5045582;28;20454;-73
2021/05/21 07:30:31;;;;;;;1.20;1.10;;;14.40;97.20;;;;;;5050878;28;20460;-71
2021/05/21 07:32:58;;;;;;;1.20;1.00;;;14.40;96.70;;;;;;5047755;28;20496;-72
2021/05/21 07:35:24;;;;;;;1.20;1.03;;;14.50;97.00;;;;;;5049026;28;20455;-72
2021/05/21 07:37:52;;;;;;;1.20;1.10;;;14.60;98.00;;;;;;5047863;28;20464;-71
2021/05/21 07:40:20;;;;;;;1.20;1.00;;;14.70;98.00;;;;;;5050653;28;20547;-72
2021/05/21 07:42:46;;;;;;;1.20;1.00;;;14.80;97.90;;;;;;5047768;28;20838;-72
2021/05/21 07:45:14;;;;;;;1.20;1.00;;;14.90;98.00;;;;;;5050368;28;20823;-72
2021/05/21 07:47:40;;;;;;;1.20;1.20;;;15.00;96.60;;;;;;5048297;28;20471;-71
2021/05/21 07:50:09;;;;;;;1.20;1.00;;;15.00;96.40;;;;;;5050555;28;20462;-71
2021/05/21 07:52:35;;;;;;;1.40;1.23;;;15.00;95.60;;;;;;5046937;28;20519;-73
2021/05/21 07:55:05;;;;;;;1.20;1.00;;;14.90;95.40;;;;;;5051100;28;20459;-71
2021/05/21 07:57:32;;;;;;;1.20;1.03;;;15.00;96.10;;;;;;5048080;28;20464;-72
2021/05/21 07:59:59;;;;;;;1.20;1.10;;;15.00;95.90;;;;;;5050760;28;20461;-70
2021/05/21 08:02:27;;;;;;;1.20;0.97;;;15.10;98.00;;;;;;5047404;28;20485;-71
2021/05/21 08:04:53;;;;;;;1.20;1.00;;;15.60;98.00;;;;;;5050680;28;20461;-71
2021/05/21 08:07:25;;;;;;;1.20;1.10;;;16.00;97.80;;;;;;5048196;28;20481;-72
2021/05/21 08:09:54;;;;;;;1.20;1.03;;;16.40;94.90;;;;;;5054702;28;20461;-73
2021/05/21 08:12:22;;;;;;;1.70;1.40;;;16.70;97.40;;;;;;5051688;28;20551;-73
2021/05/21 08:14:50;;;;;;;1.57;1.47;;;17.00;92.90;;;;;;5054522;28;20460;-72
2021/05/21 08:17:16;;;;;;;1.20;1.00;;;16.90;91.90;;;;;;5051386;28;20459;-71
2021/05/21 08:19:43;;;;;;;1.20;1.10;;;16.80;91.90;;;;;;5054274;28;20473;-72
2021/05/21 08:22:13;;;;;;;1.20;1.00;;;16.60;92.50;;;;;;5051432;28;20489;-71
2021/05/21 08:24:40;;;;;;;1.20;1.00;;;16.50;92.30;;;;;;5054409;28;20456;-71
2021/05/21 08:27:06;;;;;;;1.20;1.10;;;16.40;92.70;;;;;;5051380;28;20458;-74
2021/05/21 08:29:33;;;;;;;1.20;1.00;;;16.20;92.00;;;;;;5054095;28;20459;-73
2021/05/21 08:32:01;;;;;;;1.20;1.00;;;16.00;91.90;;;;;;5051127;28;20457;-72
2021/05/21 08:34:28;;;;;;;1.20;1.00;;;16.00;91.70;;;;;;5052853;28;20463;-73
2021/05/21 08:36:55;;;;;;;1.37;1.10;;;16.00;94.40;;;;;;5050851;28;20457;-71
2021/05/21 08:39:22;;;;;;;1.20;1.00;;;15.90;94.10;;;;;;5054064;28;20487;-73
2021/05/21 08:41:52;;;;;;;1.20;1.20;;;15.90;94.30;;;;;;5051891;28;20574;-73
2021/05/21 08:44:19;;;;;;;1.20;1.00;;;15.90;95.10;;;;;;5052948;28;20538;-72
2021/05/21 08:46:45;;;;;;;1.60;1.20;;;16.00;97.00;;;;;;5050914;28;20463;-72
2021/05/21 08:49:14;;;;;;;1.20;1.00;;;16.00;93.00;;;;;;5053798;28;20462;-73
2021/05/21 08:51:41;;;;;;;1.30;1.20;;;16.00;95.50;;;;;;5050999;28;20463;-72
2021/05/21 08:54:08;;;;;;;1.20;1.00;;;16.10;97.20;;;;;;5053864;28;20530;-71
2021/05/21 08:56:35;;;;;;;1.20;1.10;;;16.20;94.90;;;;;;5051633;28;20460;-71
2021/05/21 08:59:02;;;;;;;1.20;1.20;;;16.30;94.40;;;;;;5053844;28;20871;-73
2021/05/21 09:01:31;;;;;;;1.20;1.00;;;16.30;94.60;;;;;;5052070;28;20456;-73
2021/05/21 09:04:02;;;;;;;1.20;1.00;;;16.30;93.70;;;;;;5053743;28;20959;-71
2021/05/21 09:06:30;;;;;;;1.20;1.10;;;16.20;96.00;;;;;;5051549;28;20797;-72
2021/05/21 09:08:58;;;;;;;2.17;1.27;;;16.20;95.70;;;;;;5053618;28;20453;-70
2021/05/21 09:11:32;;;;;;;1.20;1.00;;;16.20;97.30;;;;;;5051985;28;20464;-73
2021/05/21 09:14:01;;;;;;;1.30;1.10;;;16.10;95.20;;;;;;5052579;28;20454;-73
2021/05/21 09:16:31;;;;;;;1.20;1.10;;;16.10;95.30;;;;;;5052200;28;21002;-73
2021/05/21 09:18:59;;;;;;;1.20;1.03;;;16.20;93.10;;;;;;5051057;28;21149;-72
2021/05/21 09:21:26;;;;;;;1.20;1.10;;;16.20;91.90;;;;;;5052681;28;20488;-70
2021/05/21 09:24:03;;;;;;;1.50;1.10;;;16.20;91.00;;;;;;5050344;28;21110;-73
2021/05/21 09:26:39;;;;;;;1.20;1.10;;;16.20;92.60;;;;;;5051003;28;20457;-73
2021/05/21 09:29:06;;;;;;;1.20;1.00;;;16.20;94.60;;;;;;5052451;28;20460;-74
2021/05/21 09:31:42;;;;;;;1.20;1.00;;;16.10;94.30;;;;;;5049847;28;20486;-72
2021/05/21 09:34:12;;;;;;;1.20;1.13;;;16.20;96.50;;;;;;5052372;28;21044;-73
2021/05/21 09:36:41;;;;;;;1.20;1.00;;;16.10;95.00;;;;;;5048580;28;20836;-72
2021/05/21 09:39:12;;;;;;;1.20;1.00;;;16.10;93.80;;;;;;5052636;28;21004;-72
2021/05/21 09:41:50;;;;;;;1.20;1.00;;;16.10;93.70;;;;;;5049520;28;20490;-72
2021/05/21 09:44:17;;;;;;;1.20;1.00;;;16.00;92.10;;;;;;5052772;28;20798;-72
2021/05/21 09:46:45;;;;;;;1.30;1.13;;;16.10;91.10;;;;;;5049452;28;20461;-72
2021/05/21 09:49:28;;;;;;;1.20;1.10;;;16.10;90.30;;;;;;5052267;28;21043;-72
2021/05/21 09:51:56;;;;;;;1.30;1.10;;;16.10;92.30;;;;;;5049023;28;20455;-72
2021/05/21 09:54:25;;;;;;;1.20;1.00;;;16.10;92.30;;;;;;5052241;28;20508;-72
2021/05/21 09:57:02;;;;;;;1.20;1.10;;;16.10;89.70;;;;;;5049390;28;20954;-71
2021/05/21 09:59:40;;;;;;;1.30;1.10;;;16.10;91.00;;;;;;5052379;28;20833;-72
2021/05/21 10:02:24;;;;;;;1.50;1.20;;;16.10;91.40;;;;;;5048773;28;20480;-72
2021/05/21 10:04:51;;;;;;;1.20;1.00;;;16.10;90.90;;;;;;5051777;28;20466;-71
2021/05/21 10:07:20;;;;;;;1.20;1.10;;;16.20;90.20;;;;;;5049171;28;20461;-72
2021/05/21 10:09:48;;;;;;;1.20;1.03;;;16.10;90.40;;;;;;5049518;28;20462;-73
2021/05/21 10:12:15;;;;;;;1.20;1.00;;;16.10;89.90;;;;;;5049351;28;20462;-72
2021/05/21 10:14:48;;;;;;;1.20;1.00;;;16.00;90.60;;;;;;5050647;28;20491;-72
2021/05/21 10:17:18;;;;;;;1.30;1.20;;;16.00;90.00;;;;;;5048957;28;20518;-72
2021/05/21 10:19:46;;;;;;;1.20;1.00;;;16.00;91.10;;;;;;5051673;28;20862;-72
2021/05/21 10:22:14;;;;;;;1.20;1.10;;;16.00;92.40;;;;;;5048450;28;20488;-72
2021/05/21 10:24:44;;;;;;;1.20;1.00;;;15.90;92.40;;;;;;5050342;28;20555;-71
2021/05/21 10:27:17;;;;;;;1.20;1.00;;;15.90;92.70;;;;;;5048844;28;20964;-72
2021/05/21 10:29:51;;;;;;;1.20;1.00;;;15.90;91.70;;;;;;5051534;28;20469;-71
2021/05/21 10:32:18;;;;;;;1.20;1.10;;;15.80;93.10;;;;;;5048089;28;20462;-71
2021/05/21 10:34:49;;;;;;;1.20;1.07;;;15.80;92.30;;;;;;5050038;28;20460;-71
2021/05/21 10:37:23;;;;;;;1.20;1.00;;;15.80;92.70;;;;;;5048898;28;20505;-70
2021/05/21 10:40:01;;;;;;;1.20;1.00;;;15.80;92.90;;;;;;5051429;28;20450;-71
2021/05/21 10:42:29;;;;;;;1.20;1.10;;;15.90;93.10;;;;;;5048804;28;20505;-72
2021/05/21 10:45:08;;;;;;;1.20;1.00;;;15.90;91.80;;;;;;5051352;28;20475;-73
2021/05/21 10:47:39;;;;;;;1.20;1.00;;;16.00;92.10;;;;;;5047587;28;21070;-72
2021/05/21 10:50:20;;;;;;;1.20;1.10;;;16.10;93.20;;;;;;5050965;28;20917;-71
2021/05/21 10:52:59;;;;;;;1.63;1.30;;;16.00;92.30;;;;;;5048214;28;20453;-71
2021/05/21 10:55:53;;;;;;;1.30;1.20;;;16.10;94.30;;;;;;5051344;28;20472;-71
2021/05/21 10:58:28;;;;;;;1.20;1.00;;;16.10;92.70;;;;;;5048669;28;20458;-70
2021/05/21 11:01:25;;;;;;;1.40;1.17;;;16.20;93.30;;;;;;5050984;28;20871;-72
2021/05/21 11:04:05;;;;;;;1.20;1.00;;;16.30;93.00;;;;;;5047888;28;20453;-71
2021/05/21 11:06:33;;;;;;;1.20;1.00;;;16.20;91.70;;;;;;5050705;28;20458;-71
2021/05/21 11:09:02;;;;;;;1.30;1.03;;;16.20;93.50;;;;;;5048466;28;20469;-70
2021/05/21 11:11:52;;;;;;;1.20;1.00;;;16.20;91.40;;;;;;5050750;28;20457;-71
2021/05/21 11:14:34;;;;;;;1.20;1.10;;;16.10;92.50;;;;;;5050910;28;20486;-71
2021/05/21 11:17:12;;;;;;;1.20;1.10;;;16.20;91.30;;;;;;5048096;28;21019;-72
2021/05/21 11:19:56;;;;;;;1.20;1.00;;;16.20;91.90;;;;;;5050618;28;20455;-71
2021/05/21 11:22:31;;;;;;;1.20;0.97;;;16.30;90.70;;;;;;5046535;28;20994;-71
2021/05/21 11:25:01;;;;;;;1.20;1.00;;;16.40;90.20;;;;;;5051314;28;20950;-72
2021/05/21 11:27:28;;;;;;;1.60;1.10;;;16.40;90.70;;;;;;5048280;28;20502;-72
2021/05/21 11:29:57;;;;;;;1.20;1.00;;;16.40;91.00;;;;;;5051069;28;20468;-71
2021/05/21 11:32:27;;;;;;;1.20;1.10;;;16.40;90.70;;;;;;5048192;28;20467;-71
2021/05/21 11:34:54;;;;;;;1.20;1.10;;;16.40;91.00;;;;;;5051130;28;20514;-71
2021/05/21 11:37:21;;;;;;;1.20;1.10;;;16.50;90.70;;;;;;5048637;28;20586;-72
2021/05/21 11:39:51;;;;;;;1.20;1.00;;;16.50;90.80;;;;;;5051134;28;20461;-72
2021/05/21 11:42:18;;;;;;;1.20;1.00;;;16.60;90.00;;;;;;5050018;28;20550;-72
2021/05/21 11:44:50;;;;;;;1.20;1.00;;;16.70;90.60;;;;;;5055185;28;21038;-71
2021/05/21 11:47:29;;;;;;;1.20;1.10;;;16.80;89.70;;;;;;5052264;28;20465;-71
2021/05/21 11:49:56;;;;;;;1.30;1.20;;;16.90;89.30;;;;;;5054667;28;20514;-72
2021/05/21 11:52:23;;;;;;;1.20;1.10;;;16.80;89.20;;;;;;5052026;28;20459;-71
2021/05/21 11:54:50;;;;;;;1.20;1.00;;;16.80;89.60;;;;;;5054954;28;20843;-71
2021/05/21 11:57:19;;;;;;;1.20;1.00;;;17.00;90.60;;;;;;5052152;28;20484;-71
2021/05/21 11:59:46;;;;;;;1.30;1.10;;;17.00;89.10;;;;;;5054949;28;20854;-72
2021/05/21 12:02:14;;;;;;;1.20;1.00;;;17.10;90.60;;;;;;5051781;28;20515;-72
2021/05/21 12:04:43;;;;;;;1.30;1.00;;;17.10;89.10;;;;;;5054663;28;20523;-72
2021/05/21 12:07:17;;;;;;;1.20;1.00;;;17.10;90.60;;;;;;5052324;28;20458;-72
2021/05/21 12:09:53;;;;;;;1.30;1.00;;;16.90;89.80;;;;;;5054443;28;20464;-72
2021/05/21 12:12:22;;;;;;;1.20;1.10;;;16.80;88.60;;;;;;5051563;28;20460;-72
2021/05/21 12:14:49;;;;;;;1.87;1.03;;;16.80;89.90;;;;;;5053771;28;20453;-72
2021/05/21 12:17:15;;;;;;;1.20;1.00;;;16.90;89.30;;;;;;5051498;28;20807;-71
2021/05/21 12:19:43;;;;;;;1.20;1.00;;;17.00;90.20;;;;;;5054282;28;20481;-71
2021/05/21 12:22:10;;;;;;;1.20;1.00;;;17.00;88.10;;;;;;5051360;28;20511;-72
2021/05/21 12:24:41;;;;;;;1.20;1.00;;;17.00;87.80;;;;;;5054629;28;20568;-72
2021/05/21 12:27:07;;;;;;;1.20;1.00;;;17.00;87.40;;;;;;5083624;28;20841;-71
2021/05/21 12:29:38;;;;;;;1.20;1.10;;;17.00;88.00;;;;;;5054217;28;20461;-71
2021/05/21 12:32:08;;;;;;;1.20;1.00;;;17.10;87.80;;;;;;5051395;28;20457;-69
2021/05/21 12:34:35;;;;;;;1.20;1.00;;;17.00;87.00;;;;;;5054134;28;20540;-71
2021/05/21 12:37:04;;;;;;;1.20;1.10;;;16.80;86.80;;;;;;5051333;28;20474;-70
2021/05/21 12:39:33;;;;;;;1.20;0.90;;;16.70;87.70;;;;;;5053733;28;20457;-72
2021/05/21 12:42:00;;;;;;;1.20;1.00;;;16.70;88.40;;;;;;5050072;28;21169;-71
2021/05/21 12:44:27;;;;;;;1.20;1.00;;;16.80;87.70;;;;;;5052872;28;20485;-72
2021/05/21 12:46:55;;;;;;;1.20;1.00;;;16.90;88.20;;;;;;5050014;28;20454;-72
2021/05/21 12:49:27;;;;;;;1.20;0.90;;;17.00;87.20;;;;;;5053279;28;20940;-71
2021/05/21 12:51:56;;;;;;;1.20;1.00;;;17.00;87.30;;;;;;5050782;28;21142;-72
2021/05/21 12:54:26;;;;;;;1.20;0.90;;;16.80;86.40;;;;;;5052333;28;20450;-72